Terminal Aerodrome Forecast
Issued by NWS

Home | Current Version | Previous Version | Text Only | Print | Product List | Glossary On
Versions: 1 2 3 4 5 6 7 8 9 10 11 12 13 14 15 16 17 18 19 20 21 22 23 24 25 26 27 28 29 30 31 32 33 34 35 36 37 38 39 40
000
FTUS45 KBOI 190524
TAFMYL
TAF
KMYL 190524Z 1906/2006 VRB06KT P6SM VCSH OVC025
      TEMPO 1906/1908 4SM -SHSN BR OVC015
     FM190800 14008KT 3SM -SHSN BR SCT005 OVC015
     FM191200 15005KT 1/2SM SN FZFG OVC008
     FM192100 VRB04KT 3SM -SHSN SCT008 OVC015
     FM200100 VRB03KT 3SM BR OVC020=

USA.gov is the U.S. government's official web portal to all federal, state and local government web resources and services.